createdAt,value
2023-04-28T00:04:57.057Z,14.85
2023-04-28T00:10:01.187Z,18.35
2023-04-28T00:15:05.946Z,15.20
2023-04-28T00:20:12.070Z,16.48
2023-04-28T00:25:16.089Z,14.95
2023-04-28T00:30:20.849Z,15.02
2023-04-28T00:35:24.947Z,14.25
2023-04-28T00:40:39.268Z,16.50
2023-04-28T00:45:43.070Z,14.02
2023-04-28T00:50:48.728Z,14.57
2023-04-28T00:55:57.822Z,12.50
2023-04-28T01:01:09.897Z,13.60
2023-04-28T01:06:15.848Z,16.13
2023-04-28T01:11:20.186Z,14.95
2023-04-28T01:16:34.426Z,12.15
2023-04-28T01:21:39.538Z,15.55
2023-04-28T01:26:56.678Z,15.55
2023-04-28T01:32:03.421Z,15.45
2023-04-28T01:37:07.597Z,14.35
2023-04-28T01:42:14.266Z,15.63
2023-04-28T01:47:18.263Z,15.35
2023-04-28T01:52:23.800Z,13.70
2023-04-28T01:57:30.030Z,14.80
2023-04-28T02:02:34.829Z,14.57
2023-04-28T02:07:39.980Z,16.60
2023-04-28T02:12:43.927Z,14.10
2023-04-28T02:17:48.158Z,16.10
2023-04-28T02:22:52.254Z,12.75
2023-04-28T02:27:56.260Z,21.02
2023-04-28T02:33:00.324Z,20.38
2023-04-28T02:38:04.473Z,14.40
2023-04-28T02:43:08.423Z,15.52
2023-04-28T02:48:12.409Z,14.80
2023-04-28T02:53:16.620Z,16.02
2023-04-28T02:58:20.825Z,19.23
2023-04-28T03:03:24.845Z,15.30
2023-04-28T03:08:28.961Z,15.55
2023-04-28T03:13:33.031Z,14.52
2023-04-28T03:18:37.146Z,19.50
2023-04-28T03:23:41.192Z,11.93
2023-04-28T03:28:45.568Z,15.32
2023-04-28T03:33:51.501Z,20.50
2023-04-28T03:38:56.350Z,12.07
2023-04-28T03:44:00.563Z,18.42
2023-04-28T03:49:11.563Z,13.23
2023-04-28T03:54:15.756Z,15.60
2023-04-28T03:59:20.110Z,15.73
2023-04-28T04:04:26.452Z,14.55
2023-04-28T04:09:31.238Z,15.10
2023-04-28T04:14:36.377Z,15.38
2023-04-28T04:19:41.154Z,17.85
2023-04-28T04:24:47.640Z,17.67
2023-04-28T04:29:51.851Z,16.67
2023-04-28T04:34:55.781Z,17.73
2023-04-28T04:40:00.228Z,17.02
2023-04-28T04:45:09.986Z,21.38
2023-04-28T04:50:13.854Z,17.50
2023-04-28T04:55:18.011Z,17.13
2023-04-28T05:00:23.693Z,19.30
2023-04-28T05:05:30.120Z,19.02
2023-04-28T05:11:02.147Z,18.15
2023-04-28T05:16:06.566Z,15.27
2023-04-28T05:21:27.289Z,18.45
2023-04-28T05:26:31.592Z,17.00
2023-04-28T05:32:37.693Z,19.63
2023-04-28T05:37:44.555Z,19.50
2023-04-28T05:42:49.497Z,24.75
2023-04-28T05:47:53.813Z,24.23
2023-04-28T05:52:58.105Z,22.23
2023-04-28T05:58:02.632Z,20.45
2023-04-28T06:03:07.863Z,22.40
2023-04-28T06:08:12.129Z,18.10
2023-04-28T06:13:16.263Z,21.48
2023-04-28T06:18:20.553Z,23.58
2023-04-28T06:23:24.586Z,19.70
2023-04-28T06:28:29.672Z,20.60
2023-04-28T06:33:33.676Z,20.98
2023-04-28T06:38:38.536Z,22.38
2023-04-28T06:43:42.564Z,18.70
2023-04-28T06:49:01.291Z,20.85
2023-04-28T06:54:05.182Z,22.35
2023-04-28T06:59:11.232Z,25.42
2023-04-28T07:04:15.364Z,20.20
2023-04-28T07:09:19.657Z,20.80
2023-04-28T07:14:23.482Z,17.95
2023-04-28T07:19:28.163Z,18.17
2023-04-28T07:24:32.342Z,18.85
2023-04-28T07:29:36.278Z,22.23
2023-04-28T07:34:40.370Z,20.90
2023-04-28T07:39:44.267Z,16.33
2023-04-28T07:44:48.344Z,15.02
2023-04-28T07:49:52.233Z,19.13
2023-04-28T07:54:56.237Z,15.65
2023-04-28T08:00:00.381Z,15.40
2023-04-28T08:05:04.808Z,13.60
2023-04-28T08:10:10.887Z,12.43
2023-04-28T08:15:16.536Z,9.90
2023-04-28T08:20:24.445Z,11.32
2023-04-28T08:25:29.227Z,10.07
2023-04-28T08:30:34.369Z,9.57
2023-04-28T08:35:38.469Z,14.10
2023-04-28T08:40:43.802Z,11.65
2023-04-28T08:45:48.210Z,8.32
2023-04-28T08:50:55.734Z,10.93
2023-04-28T08:56:00.261Z,7.65
2023-04-28T09:01:05.789Z,8.13
2023-04-28T09:06:10.143Z,8.43
2023-04-28T09:11:14.211Z,9.63
2023-04-28T09:16:18.480Z,10.80
2023-04-28T09:21:22.566Z,10.82
2023-04-28T09:27:03.396Z,11.50
2023-04-28T09:32:23.208Z,13.35
2023-04-28T09:37:32.556Z,12.85
2023-04-28T09:42:39.685Z,13.35
2023-04-28T09:47:47.323Z,18.30
2023-04-28T09:53:00.173Z,9.70
2023-04-28T09:58:08.500Z,15.85
2023-04-28T10:03:13.868Z,14.43
2023-04-28T10:08:19.752Z,16.02
2023-04-28T10:13:25.235Z,12.27
2023-04-28T10:18:30.260Z,14.07
2023-04-28T10:24:17.828Z,14.30
2023-04-28T10:29:28.821Z,8.38
2023-04-28T10:34:32.799Z,15.35
2023-04-28T10:39:36.781Z,12.32
2023-04-28T10:44:42.685Z,10.88
2023-04-28T10:49:58.957Z,19.13
2023-04-28T10:55:41.085Z,14.38
2023-04-28T11:00:48.387Z,9.93
2023-04-28T11:06:26.986Z,15.85
2023-04-28T11:11:40.306Z,12.52
2023-04-28T11:17:09.203Z,14.02
2023-04-28T11:22:17.236Z,17.13
2023-04-28T11:27:28.910Z,15.40
2023-04-28T11:32:34.750Z,11.38
2023-04-28T11:37:39.872Z,13.32
2023-04-28T11:42:50.489Z,13.15
2023-04-28T11:47:54.416Z,16.90
2023-04-28T11:52:58.842Z,15.90
2023-04-28T11:58:25.908Z,15.10
2023-04-28T12:03:30.095Z,17.55
2023-04-28T12:08:34.113Z,16.00
2023-04-28T12:13:39.183Z,17.55
2023-04-28T12:19:03.308Z,13.07
2023-04-28T12:24:19.319Z,15.43
2023-04-28T12:29:43.555Z,16.85
2023-04-28T12:34:47.917Z,17.50
2023-04-28T12:39:51.924Z,14.93
2023-04-28T12:44:55.812Z,26.58
2023-04-28T12:49:59.806Z,20.77
2023-04-28T12:55:04.775Z,17.63
2023-04-28T13:00:10.233Z,21.90
2023-04-28T13:05:15.448Z,19.00
2023-04-28T13:10:20.905Z,22.33
2023-04-28T13:15:24.796Z,26.73
2023-04-28T13:20:28.788Z,24.98
2023-04-28T13:25:32.941Z,17.90
2023-04-28T13:30:36.719Z,20.10
2023-04-28T13:35:41.458Z,30.08
2023-04-28T13:40:45.630Z,25.70
2023-04-28T13:45:51.080Z,31.88
2023-04-28T13:50:56.817Z,31.60
2023-04-28T13:56:01.131Z,43.85
2023-04-28T14:01:05.566Z,41.17
2023-04-28T14:06:09.889Z,32.35
2023-04-28T14:11:13.733Z,31.25
2023-04-28T14:16:18.018Z,31.85
2023-04-28T14:21:22.185Z,30.88
2023-04-28T14:26:26.769Z,29.52
2023-04-28T14:31:30.968Z,30.70
2023-04-28T14:36:35.146Z,31.13
2023-04-28T14:41:39.203Z,19.75
2023-04-28T14:46:44.339Z,31.92
2023-04-28T14:51:49.726Z,23.60
2023-04-28T14:56:53.850Z,30.73
2023-04-28T15:01:58.091Z,24.45
2023-04-28T15:07:02.550Z,44.17
2023-04-28T15:12:06.805Z,34.58
2023-04-28T15:17:11.620Z,25.65
2023-04-28T15:22:19.172Z,25.65
2023-04-28T15:27:23.865Z,25.98
2023-04-28T15:32:30.459Z,21.33
2023-04-28T15:37:42.333Z,20.48
2023-04-28T15:42:50.046Z,139.05
2023-04-28T15:47:55.732Z,62.85
2023-04-28T15:52:59.780Z,34.13
2023-04-28T15:58:04.245Z,68.20
2023-04-28T16:03:08.679Z,25.98
2023-04-28T16:08:13.298Z,25.65
2023-04-28T16:13:17.466Z,21.42
2023-04-28T16:18:21.630Z,33.92
2023-04-28T16:23:25.548Z,25.75
2023-04-28T16:28:29.646Z,28.13
2023-04-28T16:33:33.645Z,27.73
2023-04-28T16:38:37.983Z,22.52
2023-04-28T16:43:42.177Z,20.90
2023-04-28T16:48:46.271Z,17.00
2023-04-28T16:53:50.194Z,14.30
2023-04-28T16:58:54.352Z,13.90
2023-04-28T17:03:58.541Z,14.35
2023-04-28T17:09:02.710Z,11.88
2023-04-28T17:14:07.493Z,8.63
2023-04-28T17:19:12.345Z,7.90
2023-04-28T17:24:16.463Z,7.95
2023-04-28T17:29:22.572Z,6.53
2023-04-28T17:34:26.792Z,6.15
2023-04-28T17:39:30.893Z,6.35
2023-04-28T17:44:34.734Z,5.68
2023-04-28T17:49:41.495Z,6.43
2023-04-28T17:54:45.340Z,4.65
2023-04-28T17:59:52.689Z,5.13
2023-04-28T18:04:56.673Z,5.72
2023-04-28T18:10:00.813Z,3.08
2023-04-28T18:15:06.570Z,2.30
2023-04-28T18:20:11.149Z,4.28
2023-04-28T18:25:17.643Z,2.00
2023-04-28T18:30:21.737Z,1.90
2023-04-28T18:35:25.715Z,1.55
2023-04-28T18:40:39.338Z,2.30
2023-04-28T18:45:43.879Z,4.22
2023-04-28T18:50:49.206Z,1.70
2023-04-28T18:55:58.651Z,3.78
2023-04-28T19:01:02.788Z,2.22
2023-04-28T19:06:06.952Z,2.78
2023-04-28T19:11:11.386Z,3.00
2023-04-28T19:16:15.342Z,4.43
2023-04-28T19:21:19.503Z,8.68
2023-04-28T19:26:23.618Z,5.05
2023-04-28T19:31:27.612Z,4.00
2023-04-28T19:36:33.639Z,2.13
2023-04-28T19:41:37.675Z,3.50
2023-04-28T19:46:42.566Z,3.00
2023-04-28T19:51:47.767Z,3.92
2023-04-28T19:56:53.072Z,3.75
2023-04-28T20:01:57.297Z,2.03
2023-04-28T20:07:01.399Z,2.65
2023-04-28T20:12:06.988Z,1.70
2023-04-28T20:17:12.291Z,2.88
2023-04-28T20:22:16.107Z,3.20
2023-04-28T20:27:20.179Z,4.32
2023-04-28T20:32:24.008Z,4.32
2023-04-28T20:37:28.093Z,2.65
2023-04-28T20:42:32.981Z,2.22
2023-04-28T20:47:37.230Z,1.77
2023-04-28T20:52:41.291Z,2.97
2023-04-28T20:57:45.429Z,3.13
2023-04-28T21:02:49.729Z,1.58
2023-04-28T21:07:53.811Z,2.08
2023-04-28T21:12:57.649Z,1.92
2023-04-28T21:18:01.661Z,2.20
2023-04-28T21:23:05.566Z,2.22
2023-04-28T21:28:09.467Z,1.83
2023-04-28T21:33:13.442Z,2.63
2023-04-28T21:38:17.245Z,2.85
2023-04-28T21:43:21.522Z,1.83
2023-04-28T21:48:25.441Z,1.88
2023-04-28T21:53:29.641Z,1.45
2023-04-28T21:58:34.487Z,2.10
2023-04-28T22:03:39.389Z,1.85
2023-04-28T22:08:43.466Z,1.80
2023-04-28T22:13:47.250Z,3.10
2023-04-28T22:18:51.302Z,1.77
2023-04-28T22:23:55.434Z,2.33
2023-04-28T22:29:06.451Z,2.03
2023-04-28T22:34:11.215Z,2.85
2023-04-28T22:39:16.319Z,2.58
2023-04-28T22:44:20.392Z,3.00
2023-04-28T22:49:29.149Z,1.73
2023-04-28T22:54:33.037Z,1.92
2023-04-28T22:59:37.089Z,2.38
2023-04-28T23:04:41.899Z,1.75
2023-04-28T23:09:46.055Z,2.83
2023-04-28T23:14:50.125Z,1.95
2023-04-28T23:19:54.131Z,1.85
2023-04-28T23:24:57.903Z,2.75
2023-04-28T23:30:02.037Z,2.85
2023-04-28T23:35:07.856Z,2.40
2023-04-28T23:40:12.463Z,4.88
2023-04-28T23:45:16.635Z,2.22
2023-04-28T23:50:20.824Z,5.32
2023-04-28T23:55:24.751Z,2.80
